Time;durP1;ratioP1;P1;durP2;ratioP2;P2;SDS_P1;SDS_P2;PMS_P1;PMS_P2;Temp;Humidity;BMP_temperature;BMP_pressure;BME280_temperature;BME280_humidity;BME280_pressure;Samples;Min_cycle;Max_cycle;Signal;HPM_P1;HPM_P2
2023/03/17 00:00:09;;;;;;;6.35;3.40;;;7.30;68.70;;;;;;5090939;28;20035;-69
2023/03/17 00:02:35;;;;;;;4.95;3.05;;;7.30;68.80;;;;;;5091192;28;20031;-69
2023/03/17 00:05:02;;;;;;;4.65;2.75;;;7.20;68.80;;;;;;5100388;28;20062;-70
2023/03/17 00:07:27;;;;;;;5.05;3.08;;;7.20;68.80;;;;;;5095190;28;20032;-70
2023/03/17 00:09:53;;;;;;;5.90;3.28;;;7.30;69.00;;;;;;5094441;28;20086;-70
2023/03/17 00:12:19;;;;;;;6.22;3.65;;;7.20;69.20;;;;;;5085232;28;20059;-70
2023/03/17 00:14:46;;;;;;;7.22;3.30;;;7.20;69.30;;;;;;5089353;28;20086;-70
2023/03/17 00:17:13;;;;;;;7.13;3.40;;;7.20;69.50;;;;;;5095960;28;20036;-70
2023/03/17 00:19:42;;;;;;;7.63;3.45;;;7.10;69.60;;;;;;5087264;28;20402;-70
2023/03/17 00:22:17;;;;;;;6.30;3.55;;;7.10;69.70;;;;;;5097724;28;20025;-70
2023/03/17 00:24:43;;;;;;;5.63;3.35;;;7.10;69.80;;;;;;5092879;28;20063;-70
2023/03/17 00:27:12;;;;;;;6.35;3.47;;;7.10;70.00;;;;;;5095499;28;20040;-70
2023/03/17 00:29:39;;;;;;;5.53;3.30;;;7.00;70.10;;;;;;5096739;28;20035;-70
2023/03/17 00:32:16;;;;;;;6.05;3.25;;;7.00;70.30;;;;;;5093502;28;20057;-70
2023/03/17 00:34:42;;;;;;;5.57;3.80;;;7.00;70.90;;;;;;5100147;28;20028;-70
2023/03/17 00:37:11;;;;;;;6.50;3.17;;;7.00;70.30;;;;;;5098558;28;20023;-69
2023/03/17 00:39:38;;;;;;;6.95;4.63;;;6.90;70.40;;;;;;5092420;28;20028;-69
2023/03/17 00:42:05;;;;;;;7.38;3.15;;;6.90;70.50;;;;;;5093786;28;20028;-70
2023/03/17 00:44:32;;;;;;;6.45;3.50;;;6.90;70.70;;;;;;5101641;28;20034;-70
2023/03/17 00:46:58;;;;;;;8.05;4.00;;;6.90;70.80;;;;;;5092909;28;20121;-70
2023/03/17 00:49:25;;;;;;;8.20;3.92;;;6.90;70.90;;;;;;5083748;28;20028;-70
2023/03/17 00:51:51;;;;;;;5.97;3.35;;;6.80;70.90;;;;;;5103921;28;20031;-70
2023/03/17 00:54:18;;;;;;;6.30;3.85;;;6.80;71.10;;;;;;5092683;28;20093;-70
2023/03/17 00:56:44;;;;;;;6.45;3.47;;;6.80;71.20;;;;;;5093303;28;20020;-70
2023/03/17 00:59:37;;;;;;;7.03;3.78;;;6.70;71.30;;;;;;5093796;28;20499;-70
2023/03/17 01:02:03;;;;;;;7.20;3.95;;;6.80;71.40;;;;;;5092423;28;20494;-70
2023/03/17 01:04:29;;;;;;;7.03;3.53;;;6.80;71.40;;;;;;5090072;28;20028;-70
2023/03/17 01:06:57;;;;;;;7.47;4.03;;;6.70;71.40;;;;;;5097385;28;20030;-69
2023/03/17 01:09:25;;;;;;;8.07;4.50;;;6.70;71.60;;;;;;5105129;28;20085;-70
2023/03/17 01:11:51;;;;;;;6.05;3.85;;;6.70;71.70;;;;;;5087418;28;20107;-69
2023/03/17 01:14:17;;;;;;;6.13;3.67;;;6.70;71.90;;;;;;5090564;28;20048;-70
2023/03/17 01:16:43;;;;;;;6.72;3.58;;;6.70;72.00;;;;;;5098590;28;20077;-70
2023/03/17 01:19:11;;;;;;;7.05;4.55;;;6.70;72.00;;;;;;5096199;28;20043;-70
2023/03/17 01:21:37;;;;;;;5.75;3.80;;;6.70;72.20;;;;;;5091466;28;20031;-70
2023/03/17 01:24:04;;;;;;;9.05;5.13;;;6.70;72.50;;;;;;5095353;28;20030;-70
2023/03/17 01:26:30;;;;;;;8.52;4.05;;;6.60;72.40;;;;;;5098605;28;20039;-70
2023/03/17 01:28:55;;;;;;;7.95;3.80;;;6.70;72.50;;;;;;5090913;28;20191;-70
2023/03/17 01:31:22;;;;;;;5.80;3.55;;;6.70;72.70;;;;;;5090143;28;20455;-70
2023/03/17 01:33:47;;;;;;;7.28;3.90;;;6.70;72.60;;;;;;5092626;28;20032;-70
2023/03/17 01:36:14;;;;;;;6.25;4.20;;;6.70;72.70;;;;;;5099265;28;20038;-70
2023/03/17 01:38:40;;;;;;;7.60;4.38;;;6.70;73.30;;;;;;5096196;28;20016;-70
2023/03/17 01:41:06;;;;;;;7.07;4.03;;;6.70;73.00;;;;;;5098515;28;20027;-70
2023/03/17 01:43:32;;;;;;;9.45;4.75;;;6.70;73.10;;;;;;5104078;28;20429;-70
2023/03/17 01:46:16;;;;;;;8.82;4.28;;;6.70;73.20;;;;;;5088740;28;20054;-70
2023/03/17 01:49:04;;;;;;;7.63;4.38;;;6.70;73.40;;;;;;5106858;28;20039;-70
2023/03/17 01:52:07;;;;;;;6.93;4.55;;;6.70;73.50;;;;;;5103898;28;20035;-70
2023/03/17 01:54:40;;;;;;;8.38;4.72;;;6.70;73.60;;;;;;5076450;28;20060;-69
2023/03/17 01:57:16;;;;;;;5.47;3.80;;;6.70;73.60;;;;;;5101932;28;20059;-70
2023/03/17 02:00:05;;;;;;;7.00;4.22;;;6.70;73.70;;;;;;5113350;28;20574;-70
2023/03/17 02:02:34;;;;;;;8.18;4.45;;;6.70;73.90;;;;;;5094119;28;20106;-70
2023/03/17 02:05:01;;;;;;;9.68;4.90;;;6.70;74.20;;;;;;5102947;28;20028;-70
2023/03/17 02:07:27;;;;;;;8.00;4.45;;;6.70;74.10;;;;;;5094391;28;20055;-70
2023/03/17 02:09:54;;;;;;;14.15;4.88;;;6.70;74.20;;;;;;5095068;28;20032;-70
2023/03/17 02:12:22;;;;;;;9.48;4.43;;;6.70;74.20;;;;;;5099330;28;20028;-70
2023/03/17 02:14:48;;;;;;;6.53;3.92;;;6.70;74.30;;;;;;5107466;28;20044;-70
2023/03/17 02:17:13;;;;;;;6.13;4.07;;;6.70;74.40;;;;;;5095602;28;20426;-70
2023/03/17 02:19:39;;;;;;;11.05;4.82;;;6.70;74.40;;;;;;5101102;28;20081;-70
2023/03/17 02:25:29;;;;;;;5.70;4.07;;;6.70;74.50;;;;;;5074725;28;20032;-70
2023/03/17 02:28:00;;;;;;;7.35;4.15;;;6.70;74.60;;;;;;5092568;28;20024;-70
2023/03/17 02:30:27;;;;;;;6.95;4.45;;;6.60;74.70;;;;;;5088858;28;20027;-70
2023/03/17 02:32:52;;;;;;;11.05;4.45;;;6.60;75.10;;;;;;5097476;28;20196;-70
2023/03/17 02:35:19;;;;;;;8.32;3.85;;;6.60;75.20;;;;;;5109092;28;20044;-70
2023/03/17 02:37:45;;;;;;;7.43;4.47;;;6.60;74.80;;;;;;5100942;27;20107;-70
2023/03/17 02:40:12;;;;;;;7.90;4.82;;;6.60;74.80;;;;;;5108755;28;20093;-70
2023/03/17 02:42:38;;;;;;;7.60;4.57;;;6.70;74.90;;;;;;5102521;28;20095;-70
2023/03/17 02:45:08;;;;;;;8.18;4.75;;;6.70;74.90;;;;;;5104093;28;20110;-70
2023/03/17 02:47:35;;;;;;;6.85;4.20;;;6.60;74.90;;;;;;5101008;28;20025;-70
2023/03/17 02:50:01;;;;;;;7.65;4.60;;;6.70;74.90;;;;;;5101698;28;20043;-70
2023/03/17 02:52:26;;;;;;;7.90;4.03;;;6.60;74.90;;;;;;5100635;28;20107;-70
2023/03/17 02:54:52;;;;;;;10.50;4.25;;;6.70;75.10;;;;;;5106929;28;20138;-70
2023/03/17 02:57:18;;;;;;;7.75;4.68;;;6.60;75.20;;;;;;5104302;28;20106;-70
2023/03/17 02:59:44;;;;;;;8.50;4.60;;;6.60;75.20;;;;;;5103310;28;20034;-70
2023/03/17 03:02:10;;;;;;;6.90;4.57;;;6.60;75.20;;;;;;5100842;28;20020;-70
2023/03/17 03:04:36;;;;;;;8.18;4.80;;;6.70;75.30;;;;;;5111135;28;20055;-70
2023/03/17 03:07:02;;;;;;;7.70;4.55;;;6.70;75.30;;;;;;5103082;28;20028;-70
2023/03/17 03:09:28;;;;;;;7.57;4.15;;;6.70;75.20;;;;;;5101374;28;20024;-70
2023/03/17 03:11:54;;;;;;;9.23;4.75;;;6.70;75.20;;;;;;5106066;28;20027;-70
2023/03/17 03:14:20;;;;;;;8.30;4.55;;;6.70;75.20;;;;;;5089379;28;20048;-70
2023/03/17 03:16:46;;;;;;;7.18;4.47;;;6.70;75.20;;;;;;5088944;28;20517;-70
2023/03/17 03:19:12;;;;;;;8.38;4.38;;;6.60;75.10;;;;;;5091931;28;20430;-70
2023/03/17 03:21:38;;;;;;;7.38;4.95;;;6.60;75.10;;;;;;5094466;28;20027;-70
2023/03/17 03:24:04;;;;;;;8.77;4.95;;;6.60;75.30;;;;;;5098316;28;20028;-70
2023/03/17 03:26:30;;;;;;;8.90;4.43;;;6.70;75.80;;;;;;5096234;28;20104;-70
2023/03/17 03:28:57;;;;;;;6.82;4.57;;;6.70;75.30;;;;;;5089964;28;20032;-69
2023/03/17 03:31:23;;;;;;;10.05;5.10;;;6.70;75.30;;;;;;5093777;28;20035;-69
2023/03/17 03:33:49;;;;;;;7.78;4.28;;;6.70;75.30;;;;;;5100821;28;20035;-69
2023/03/17 03:36:15;;;;;;;8.25;4.60;;;6.70;75.40;;;;;;5087081;28;20039;-69
2023/03/17 03:38:41;;;;;;;7.80;4.88;;;6.70;75.40;;;;;;5098953;28;20031;-69
2023/03/17 03:41:07;;;;;;;7.78;4.40;;;6.70;75.40;;;;;;5100024;28;20035;-69
2023/03/17 03:43:34;;;;;;;7.50;4.78;;;6.70;75.30;;;;;;5097131;28;20043;-69
2023/03/17 03:46:00;;;;;;;8.55;4.43;;;6.70;75.30;;;;;;5096987;28;20028;-68
2023/03/17 03:48:26;;;;;;;8.05;4.57;;;6.70;75.30;;;;;;5095947;28;20024;-68
2023/03/17 03:50:56;;;;;;;6.93;4.47;;;6.70;75.40;;;;;;5089986;28;20494;-69
2023/03/17 03:53:22;;;;;;;9.75;4.82;;;6.80;75.40;;;;;;5102295;28;20308;-68
2023/03/17 03:55:47;;;;;;;7.38;4.20;;;6.70;75.20;;;;;;5097962;28;20277;-70
2023/03/17 03:58:13;;;;;;;8.82;4.53;;;6.70;75.20;;;;;;5094772;28;20078;-70
2023/03/17 04:00:39;;;;;;;5.15;3.90;;;6.70;75.30;;;;;;5093943;28;20032;-69
2023/03/17 04:03:05;;;;;;;7.93;4.57;;;6.80;75.40;;;;;;5100326;28;20069;-69
2023/03/17 04:05:30;;;;;;;9.60;4.78;;;6.80;75.30;;;;;;5092429;28;20024;-69
2023/03/17 04:07:56;;;;;;;7.72;3.85;;;6.80;75.30;;;;;;5086410;28;20114;-69
2023/03/17 04:10:22;;;;;;;7.47;4.75;;;6.70;75.20;;;;;;5090964;28;20449;-69
2023/03/17 04:12:47;;;;;;;8.13;4.90;;;6.70;75.30;;;;;;5094089;28;20475;-69
2023/03/17 04:15:15;;;;;;;8.20;4.88;;;6.70;75.20;;;;;;5100317;28;20070;-70
2023/03/17 04:17:41;;;;;;;9.57;4.95;;;6.70;75.10;;;;;;5093420;28;20150;-70
2023/03/17 04:20:08;;;;;;;6.70;4.28;;;6.70;75.10;;;;;;5103033;28;20110;-69
2023/03/17 04:22:34;;;;;;;7.30;4.68;;;6.70;75.10;;;;;;5096100;28;20136;-70
2023/03/17 04:24:59;;;;;;;8.90;4.43;;;6.70;75.00;;;;;;5098977;28;20547;-69
2023/03/17 04:27:25;;;;;;;10.02;4.45;;;6.70;75.10;;;;;;5092433;28;20024;-69
2023/03/17 04:29:51;;;;;;;6.88;3.97;;;6.70;75.10;;;;;;5084764;28;20028;-69
2023/03/17 04:32:17;;;;;;;7.38;4.18;;;6.70;75.20;;;;;;5093314;28;20467;-69
2023/03/17 04:34:42;;;;;;;5.90;4.10;;;6.70;75.10;;;;;;5104663;28;20114;-70
2023/03/17 04:37:09;;;;;;;7.00;4.10;;;6.70;75.10;;;;;;5093690;28;20016;-69
2023/03/17 04:39:35;;;;;;;9.32;4.18;;;6.60;75.00;;;;;;5099470;28;20104;-69
2023/03/17 04:42:01;;;;;;;7.30;4.15;;;6.60;75.10;;;;;;5088898;28;20019;-69
2023/03/17 04:44:27;;;;;;;5.30;3.75;;;6.60;75.00;;;;;;5104627;28;20077;-69
2023/03/17 04:46:52;;;;;;;6.50;4.13;;;6.60;75.10;;;;;;5093719;28;20030;-69
2023/03/17 04:49:18;;;;;;;6.25;4.07;;;6.60;75.00;;;;;;5096100;28;20526;-69
2023/03/17 04:51:43;;;;;;;7.45;4.05;;;6.60;74.90;;;;;;5088707;28;20088;-70
2023/03/17 04:54:10;;;;;;;6.15;3.90;;;6.60;74.90;;;;;;5091637;28;20028;-68
2023/03/17 04:56:35;;;;;;;6.57;4.35;;;6.60;75.30;;;;;;5092222;28;20423;-69
2023/03/17 04:59:01;;;;;;;7.70;4.75;;;6.60;74.80;;;;;;5102878;28;20144;-71
2023/03/17 05:01:27;;;;;;;8.77;3.78;;;6.60;74.80;;;;;;5102694;28;20099;-66
2023/03/17 05:03:52;;;;;;;6.38;4.10;;;6.60;74.80;;;;;;5081487;28;20028;-65
2023/03/17 05:06:18;;;;;;;7.90;5.43;;;6.60;74.70;;;;;;5091954;28;20031;-66
2023/03/17 05:08:44;;;;;;;6.10;3.92;;;6.50;74.70;;;;;;5087080;28;20028;-66
2023/03/17 05:11:11;;;;;;;7.50;4.20;;;6.50;74.70;;;;;;5087191;28;20486;-66
2023/03/17 05:13:37;;;;;;;8.82;4.35;;;6.50;74.70;;;;;;5089890;28;20081;-65
2023/03/17 05:16:02;;;;;;;11.13;4.30;;;6.50;74.60;;;;;;5089990;28;20024;-66
2023/03/17 05:18:28;;;;;;;8.85;4.97;;;6.50;74.70;;;;;;5092277;28;20138;-65
2023/03/17 05:20:55;;;;;;;5.70;3.70;;;6.50;74.70;;;;;;5095926;28;20535;-66
2023/03/17 05:23:21;;;;;;;7.43;3.75;;;6.50;74.80;;;;;;5093501;28;20570;-65
2023/03/17 05:25:47;;;;;;;6.05;3.63;;;6.50;74.90;;;;;;5096274;28;20115;-66
2023/03/17 05:28:13;;;;;;;9.05;4.10;;;6.50;75.00;;;;;;5090008;28;20028;-65
2023/03/17 05:30:39;;;;;;;10.75;4.07;;;6.50;74.80;;;;;;5097594;28;20518;-65
2023/03/17 05:33:05;;;;;;;6.60;4.00;;;6.50;74.80;;;;;;5098290;28;20056;-65
2023/03/17 05:35:31;;;;;;;7.55;4.20;;;6.60;74.80;;;;;;5092779;28;20035;-65
2023/03/17 05:37:56;;;;;;;7.80;3.88;;;6.60;74.70;;;;;;5096894;28;20092;-67
2023/03/17 05:40:22;;;;;;;7.13;4.22;;;6.60;74.50;;;;;;5097003;28;20560;-67
2023/03/17 05:42:50;;;;;;;6.25;4.00;;;6.60;74.60;;;;;;5100308;28;20028;-67
2023/03/17 05:45:16;;;;;;;12.77;4.82;;;6.60;74.60;;;;;;5093462;28;20102;-67
2023/03/17 05:47:42;;;;;;;7.47;4.28;;;6.60;74.60;;;;;;5087810;28;20028;-68
2023/03/17 05:50:09;;;;;;;6.43;3.58;;;6.60;74.50;;;;;;5088087;28;20032;-68
2023/03/17 05:52:35;;;;;;;8.38;4.53;;;6.70;74.60;;;;;;5096348;28;20028;-68
2023/03/17 05:55:01;;;;;;;7.60;3.95;;;6.60;74.50;;;;;;5097944;28;20031;-68
2023/03/17 05:57:27;;;;;;;9.30;4.57;;;6.70;74.40;;;;;;5089315;28;20032;-69
2023/03/17 05:59:53;;;;;;;4.80;3.33;;;6.70;74.40;;;;;;5097337;28;20023;-69
2023/03/17 06:02:19;;;;;;;6.82;4.25;;;6.70;74.40;;;;;;5095533;28;20663;-69
2023/03/17 06:04:45;;;;;;;6.80;3.67;;;6.80;74.30;;;;;;5090945;28;20024;-69
2023/03/17 06:07:11;;;;;;;12.75;4.32;;;6.80;74.30;;;;;;5094908;28;20028;-69
2023/03/17 06:09:37;;;;;;;6.05;3.63;;;6.80;74.20;;;;;;5088102;28;20081;-68
2023/03/17 06:12:03;;;;;;;6.47;3.53;;;6.80;74.20;;;;;;5088772;28;20028;-68
2023/03/17 06:14:29;;;;;;;10.35;4.65;;;6.80;74.10;;;;;;5092327;28;20048;-70
2023/03/17 06:16:55;;;;;;;7.82;4.13;;;6.80;74.60;;;;;;5082748;28;20066;-70
2023/03/17 06:19:21;;;;;;;8.80;4.80;;;6.90;74.10;;;;;;5078015;28;20056;-70
2023/03/17 06:21:47;;;;;;;7.75;4.55;;;7.00;74.10;;;;;;5074365;28;20481;-69
2023/03/17 06:24:13;;;;;;;6.45;3.90;;;6.90;74.00;;;;;;5085829;28;20482;-70
2023/03/17 06:26:38;;;;;;;7.93;4.28;;;6.90;73.90;;;;;;5092606;28;20030;-70
2023/03/17 06:29:08;;;;;;;5.75;3.80;;;6.90;73.90;;;;;;5101025;28;20023;-69
2023/03/17 06:31:34;;;;;;;6.63;3.38;;;7.00;73.90;;;;;;5088920;28;20027;-67
2023/03/17 06:34:00;;;;;;;8.68;4.95;;;7.00;73.90;;;;;;5088006;28;20040;-67
2023/03/17 06:36:26;;;;;;;6.93;3.63;;;7.00;73.90;;;;;;5098209;28;20033;-68
2023/03/17 06:38:51;;;;;;;7.35;4.05;;;7.10;73.80;;;;;;5087219;28;20049;-67
2023/03/17 06:41:17;;;;;;;9.05;3.65;;;7.10;73.70;;;;;;5103080;28;20024;-68
2023/03/17 06:43:43;;;;;;;5.72;3.75;;;7.20;73.60;;;;;;5097752;28;20028;-66
2023/03/17 06:46:09;;;;;;;6.38;4.00;;;7.20;73.70;;;;;;5098282;28;20039;-67
2023/03/17 06:48:35;;;;;;;6.78;4.10;;;7.20;73.70;;;;;;5085787;28;20056;-68
2023/03/17 06:51:01;;;;;;;5.85;3.70;;;7.20;73.40;;;;;;5081503;28;20540;-68
2023/03/17 06:53:27;;;;;;;6.20;3.97;;;7.20;73.40;;;;;;5090112;28;20073;-67
2023/03/17 06:55:52;;;;;;;9.13;4.05;;;7.30;73.40;;;;;;5096818;28;20020;-67
2023/03/17 06:58:19;;;;;;;11.02;3.83;;;7.30;73.90;;;;;;5096496;28;20585;-68
2023/03/17 07:00:47;;;;;;;6.32;4.00;;;7.30;73.30;;;;;;5099513;28;20066;-67
2023/03/17 07:03:16;;;;;;;6.65;3.28;;;7.40;73.10;;;;;;5089600;28;20422;-68
2023/03/17 07:05:41;;;;;;;9.30;4.63;;;7.40;73.00;;;;;;5102825;28;20122;-68
2023/03/17 07:08:07;;;;;;;5.68;3.65;;;7.50;73.00;;;;;;5093221;28;20106;-68
2023/03/17 07:10:34;;;;;;;7.53;3.85;;;7.50;73.10;;;;;;5091140;28;20028;-67
2023/03/17 07:13:01;;;;;;;7.07;4.00;;;7.50;73.00;;;;;;5094982;28;20032;-68
2023/03/17 07:15:27;;;;;;;10.20;4.45;;;7.60;72.90;;;;;;5097345;28;20060;-65
2023/03/17 07:17:53;;;;;;;8.40;3.47;;;7.70;72.70;;;;;;5088406;28;20065;-68
2023/03/17 07:20:19;;;;;;;7.35;4.50;;;7.70;72.80;;;;;;5085923;28;20035;-65
2023/03/17 07:22:45;;;;;;;6.82;3.75;;;7.70;72.20;;;;;;5106467;28;20028;-65
2023/03/17 07:25:11;;;;;;;8.10;4.35;;;7.70;72.10;;;;;;5100053;28;20459;-65
2023/03/17 07:27:37;;;;;;;5.72;3.65;;;7.70;72.10;;;;;;5078324;28;20064;-65
2023/03/17 07:30:04;;;;;;;14.35;4.45;;;7.70;72.00;;;;;;5098684;28;20027;-65
2023/03/17 07:32:31;;;;;;;7.97;4.65;;;7.80;72.00;;;;;;5080944;28;20110;-65
2023/03/17 07:34:57;;;;;;;7.28;3.60;;;7.80;71.90;;;;;;5096821;28;20429;-65
2023/03/17 07:37:23;;;;;;;5.18;3.50;;;7.90;72.00;;;;;;5096420;28;20024;-65
2023/03/17 07:39:48;;;;;;;6.68;3.65;;;7.90;72.00;;;;;;5077524;28;20382;-65
2023/03/17 07:42:16;;;;;;;6.05;4.40;;;8.00;71.70;;;;;;5090891;28;20024;-65
2023/03/17 07:44:42;;;;;;;6.88;4.22;;;8.00;71.90;;;;;;5091303;28;20111;-65
2023/03/17 07:47:09;;;;;;;7.85;4.15;;;8.10;71.80;;;;;;5098831;28;20153;-65
2023/03/17 07:49:35;;;;;;;6.82;4.32;;;8.20;71.80;;;;;;5095705;28;20032;-65
2023/03/17 07:52:00;;;;;;;10.43;3.97;;;8.30;71.70;;;;;;5104285;28;20076;-65
2023/03/17 07:54:27;;;;;;;7.13;4.65;;;8.40;71.50;;;;;;5095012;28;20059;-65
2023/03/17 07:56:53;;;;;;;6.05;4.00;;;8.40;71.60;;;;;;5105663;28;20043;-65
2023/03/17 07:59:19;;;;;;;10.30;4.30;;;8.40;71.40;;;;;;5099982;28;20048;-66
2023/03/17 08:01:45;;;;;;;5.80;3.85;;;8.50;71.10;;;;;;5094599;28;20027;-66
2023/03/17 08:04:12;;;;;;;7.80;4.05;;;8.60;70.90;;;;;;5088547;28;20028;-65
2023/03/17 08:06:40;;;;;;;7.43;4.18;;;8.60;70.70;;;;;;5094785;28;20039;-65
2023/03/17 08:09:07;;;;;;;8.20;4.30;;;8.60;70.50;;;;;;5104858;28;20161;-65
2023/03/17 08:11:34;;;;;;;7.00;3.78;;;8.60;70.20;;;;;;5099682;28;20059;-65
2023/03/17 08:14:01;;;;;;;10.57;4.47;;;8.70;70.70;;;;;;5091806;28;20479;-64
2023/03/17 08:16:27;;;;;;;5.13;3.40;;;8.80;70.30;;;;;;5097595;28;20411;-66
2023/03/17 08:18:54;;;;;;;11.27;4.22;;;8.90;70.10;;;;;;5099245;28;20024;-66
2023/03/17 08:21:19;;;;;;;6.10;4.07;;;9.00;69.90;;;;;;5101687;28;20036;-66
2023/03/17 08:23:45;;;;;;;8.23;4.32;;;9.00;69.70;;;;;;5088221;28;20046;-66
2023/03/17 08:26:13;;;;;;;7.95;4.00;;;9.10;69.60;;;;;;5089838;28;20103;-67
2023/03/17 08:28:39;;;;;;;5.85;3.88;;;9.20;69.60;;;;;;5090693;28;20094;-66
2023/03/17 08:31:19;;;;;;;4.68;3.42;;;9.30;69.40;;;;;;5088006;28;20947;-67
2023/03/17 08:33:50;;;;;;;6.20;3.78;;;9.30;69.30;;;;;;5097588;28;20062;-66
2023/03/17 08:36:17;;;;;;;6.43;4.00;;;9.40;69.30;;;;;;5102487;28;20038;-66
2023/03/17 08:38:44;;;;;;;5.90;3.75;;;9.60;69.40;;;;;;5093711;28;20055;-67
2023/03/17 08:41:13;;;;;;;7.28;4.20;;;9.70;69.20;;;;;;5100510;28;20029;-66
2023/03/17 08:43:41;;;;;;;7.43;4.38;;;9.70;69.00;;;;;;5102470;28;20024;-66
2023/03/17 08:46:12;;;;;;;6.75;3.78;;;9.70;68.90;;;;;;5095862;28;20236;-65
2023/03/17 08:48:38;;;;;;;7.13;4.10;;;9.90;68.90;;;;;;5084826;28;20738;-66
2023/03/17 08:51:04;;;;;;;6.75;3.70;;;10.00;68.80;;;;;;5093427;28;20298;-66
2023/03/17 08:53:31;;;;;;;9.18;3.85;;;10.00;68.00;;;;;;5096975;28;20039;-66
2023/03/17 08:55:56;;;;;;;8.85;3.90;;;10.10;68.20;;;;;;5107512;28;20043;-66
2023/03/17 08:58:23;;;;;;;5.18;3.83;;;10.20;68.20;;;;;;5100630;28;20074;-66
2023/03/17 09:00:49;;;;;;;5.65;3.42;;;10.20;67.90;;;;;;5097422;28;20035;-66
2023/03/17 09:03:15;;;;;;;6.53;3.80;;;10.30;67.90;;;;;;5099847;28;20035;-68
2023/03/17 09:05:41;;;;;;;7.45;3.80;;;10.40;67.80;;;;;;5094564;28;20027;-66
2023/03/17 09:08:08;;;;;;;8.25;4.03;;;10.40;68.00;;;;;;5102336;28;20027;-66
2023/03/17 09:10:34;;;;;;;7.55;3.75;;;10.60;67.70;;;;;;5094034;28;20082;-66
2023/03/17 09:13:02;;;;;;;8.80;4.00;;;10.60;67.40;;;;;;5108064;28;20032;-66
2023/03/17 09:15:30;;;;;;;5.85;3.67;;;10.60;67.20;;;;;;5103220;28;20073;-66
2023/03/17 09:17:56;;;;;;;5.43;3.63;;;10.80;67.00;;;;;;5103065;28;20132;-66
2023/03/17 09:20:21;;;;;;;9.82;4.20;;;10.80;67.00;;;;;;5090995;28;20060;-66
2023/03/17 09:22:47;;;;;;;6.15;3.53;;;10.90;66.70;;;;;;5094103;28;20062;-66
2023/03/17 09:25:14;;;;;;;7.35;3.80;;;10.90;66.70;;;;;;5101885;28;20034;-67
2023/03/17 09:27:40;;;;;;;9.18;3.85;;;10.90;66.40;;;;;;5088668;28;20034;-66
2023/03/17 09:30:09;;;;;;;5.78;3.72;;;11.00;66.50;;;;;;5103549;28;20024;-66
2023/03/17 09:32:35;;;;;;;7.55;3.90;;;11.00;66.20;;;;;;5073657;28;20065;-67
2023/03/17 09:35:02;;;;;;;5.53;3.67;;;11.10;66.50;;;;;;5092757;28;20040;-66
2023/03/17 09:37:28;;;;;;;5.93;3.78;;;11.20;66.20;;;;;;5104101;28;20028;-66
2023/03/17 09:39:54;;;;;;;4.43;3.40;;;11.20;66.20;;;;;;5095360;28;20404;-65
2023/03/17 09:42:28;;;;;;;8.98;3.55;;;11.30;66.10;;;;;;5100970;28;20028;-66
2023/03/17 09:45:16;;;;;;;4.03;2.92;;;11.40;65.80;;;;;;5086955;28;20028;-66
2023/03/17 09:47:51;;;;;;;8.00;3.58;;;11.40;65.90;;;;;;5085200;28;20414;-66
2023/03/17 09:50:37;;;;;;;7.45;4.03;;;11.50;66.00;;;;;;5084625;28;20479;-66
2023/03/17 09:53:04;;;;;;;8.25;3.53;;;11.70;66.30;;;;;;5098899;28;20091;-66
2023/03/17 09:55:32;;;;;;;5.75;3.42;;;11.80;66.10;;;;;;5090375;28;20046;-66
2023/03/17 09:57:59;;;;;;;5.72;3.70;;;11.80;65.50;;;;;;5091714;28;20039;-66
2023/03/17 10:00:28;;;;;;;5.78;3.75;;;12.00;65.40;;;;;;5102122;28;20395;-65
2023/03/17 10:02:55;;;;;;;6.57;3.70;;;12.10;65.60;;;;;;5082729;28;20087;-65
2023/03/17 10:05:27;;;;;;;5.72;3.17;;;12.20;65.20;;;;;;5071993;28;20086;-65
2023/03/17 10:08:11;;;;;;;8.05;3.40;;;12.20;65.00;;;;;;5096387;28;20025;-65
2023/03/17 10:11:00;;;;;;;;;;;12.30;64.30;;;;;;5096654;28;20372;-66
2023/03/17 10:13:41;;;;;;;5.15;3.38;;;12.30;65.30;;;;;;5103318;28;19938;-65
2023/03/17 10:16:25;;;;;;;6.07;3.63;;;12.30;64.50;;;;;;5099993;28;20497;-66
2023/03/17 10:18:59;;;;;;;5.50;3.30;;;12.40;64.40;;;;;;5100139;28;20034;-66
2023/03/17 10:21:30;;;;;;;4.47;3.28;;;12.40;63.90;;;;;;5105862;28;20027;-66
2023/03/17 10:23:59;;;;;;;5.47;3.05;;;12.40;63.90;;;;;;5104947;28;20062;-65
2023/03/17 10:26:33;;;;;;;5.47;3.35;;;12.50;63.90;;;;;;5103184;28;20393;-65
2023/03/17 10:29:03;;;;;;;4.82;2.80;;;12.60;63.30;;;;;;5099078;28;20079;-65
2023/03/17 10:31:36;;;;;;;6.10;3.38;;;12.60;63.40;;;;;;5103051;28;20032;-66
2023/03/17 10:34:24;;;;;;;7.15;3.22;;;12.60;63.40;;;;;;5093986;28;20039;-67
2023/03/17 10:37:00;;;;;;;5.72;3.35;;;12.70;63.20;;;;;;5103167;28;20120;-66
2023/03/17 10:39:26;;;;;;;5.68;3.15;;;12.70;63.10;;;;;;5084366;28;20309;-66
2023/03/17 10:42:06;;;;;;;6.28;3.22;;;12.80;63.10;;;;;;5091087;28;20032;-65
2023/03/17 10:44:43;;;;;;;4.72;2.95;;;12.90;62.70;;;;;;5100256;28;20084;-65
2023/03/17 10:47:29;;;;;;;6.10;3.33;;;12.90;62.40;;;;;;5100738;28;20024;-65
2023/03/17 10:49:57;;;;;;;6.32;3.05;;;13.00;62.30;;;;;;5110967;28;20032;-65
2023/03/17 10:52:30;;;;;;;5.28;3.05;;;13.10;62.70;;;;;;5091768;28;20063;-65
2023/03/17 10:55:04;;;;;;;7.50;3.10;;;13.10;62.50;;;;;;5102122;28;20032;-65
2023/03/17 10:57:30;;;;;;;4.72;2.78;;;13.20;62.20;;;;;;5108369;28;20380;-65
2023/03/17 10:59:58;;;;;;;5.55;3.78;;;13.30;62.40;;;;;;5091510;28;20032;-65
2023/03/17 11:02:41;;;;;;;5.82;3.30;;;13.30;62.50;;;;;;5098975;28;20024;-65
2023/03/17 11:05:18;;;;;;;6.95;3.55;;;13.40;62.50;;;;;;5081928;28;20032;-66
2023/03/17 11:07:44;;;;;;;7.60;3.20;;;13.50;62.70;;;;;;5104638;28;20051;-65
2023/03/17 11:10:24;;;;;;;8.50;3.70;;;13.60;62.40;;;;;;5095285;28;20032;-65
2023/03/17 11:13:01;;;;;;;4.03;2.50;;;13.70;62.40;;;;;;5091203;28;20089;-65
2023/03/17 11:15:41;;;;;;;4.28;2.67;;;13.80;62.20;;;;;;5093942;28;20398;-66
2023/03/17 11:18:18;;;;;;;5.28;2.95;;;13.90;61.70;;;;;;5088238;28;20107;-66
2023/03/17 11:21:03;;;;;;;5.35;3.10;;;13.90;61.00;;;;;;5102611;28;20028;-65
2023/03/17 11:23:52;;;;;;;3.22;2.67;;;14.00;61.30;;;;;;5071223;28;20040;-66
2023/03/17 11:26:29;;;;;;;8.10;2.80;;;14.00;61.30;;;;;;5089456;28;20039;-66
2023/03/17 11:29:12;;;;;;;5.43;3.20;;;14.10;61.60;;;;;;5093961;28;20031;-66
2023/03/17 11:32:14;;;;;;;5.88;3.22;;;14.20;61.50;;;;;;5091828;28;20082;-65
2023/03/17 11:35:16;;;;;;;5.20;2.70;;;14.20;61.30;;;;;;5097429;28;20065;-65
2023/03/17 11:37:58;;;;;;;5.78;2.92;;;14.30;61.30;;;;;;5104521;28;20119;-65
2023/03/17 11:40:54;;;;;;;4.97;3.33;;;14.40;61.60;;;;;;5098411;28;20034;-67
2023/03/17 11:43:20;;;;;;;4.68;2.90;;;14.40;61.50;;;;;;5089539;28;20476;-67
2023/03/17 11:45:52;;;;;;;4.97;2.65;;;14.50;60.90;;;;;;5082062;28;20860;-66
2023/03/17 11:48:36;;;;;;;4.50;2.80;;;14.50;60.80;;;;;;5100294;28;20039;-65
2023/03/17 11:51:26;;;;;;;7.43;3.25;;;14.50;60.60;;;;;;5094206;28;20020;-66
2023/03/17 11:53:59;;;;;;;7.28;3.22;;;14.60;60.50;;;;;;5089321;28;20038;-65
2023/03/17 11:56:36;;;;;;;3.47;2.38;;;14.60;60.00;;;;;;5102252;28;20032;-66
2023/03/17 11:59:10;;;;;;;4.70;3.35;;;14.60;59.80;;;;;;5083305;28;20071;-66
2023/03/17 12:01:54;;;;;;;4.47;3.03;;;14.60;60.10;;;;;;5092829;28;20028;-66
2023/03/17 12:04:33;;;;;;;4.78;2.40;;;14.70;59.70;;;;;;5098532;28;20583;-66
2023/03/17 12:07:12;;;;;;;5.20;2.53;;;14.70;59.80;;;;;;5100460;28;20360;-65
2023/03/17 12:09:45;;;;;;;6.00;2.42;;;14.70;59.90;;;;;;5093861;28;20078;-66
2023/03/17 12:12:18;;;;;;;5.53;2.28;;;14.80;59.60;;;;;;5095569;28;20498;-66
2023/03/17 12:14:48;;;;;;;4.18;2.33;;;14.80;59.70;;;;;;5105505;28;20077;-66
2023/03/17 12:17:27;;;;;;;4.80;3.03;;;14.80;59.40;;;;;;5096914;28;20052;-66
2023/03/17 12:20:17;;;;;;;4.35;2.92;;;14.90;59.10;;;;;;5092502;28;20051;-66
2023/03/17 12:22:56;;;;;;;3.40;2.22;;;14.90;59.20;;;;;;5099763;28;20023;-66
2023/03/17 12:25:42;;;;;;;6.47;2.50;;;14.90;59.10;;;;;;5093848;28;20047;-66
2023/03/17 12:28:21;;;;;;;4.38;2.33;;;14.90;59.10;;;;;;5091360;28;20032;-66
2023/03/17 12:30:53;;;;;;;7.05;3.00;;;15.00;58.90;;;;;;5097626;28;20028;-66
2023/03/17 12:33:37;;;;;;;4.30;2.35;;;15.00;59.00;;;;;;5095773;28;20046;-66
2023/03/17 12:36:06;;;;;;;6.07;2.75;;;15.00;59.90;;;;;;5091232;28;20066;-64
2023/03/17 12:38:37;;;;;;;4.53;2.25;;;15.10;59.10;;;;;;5105400;28;20031;-65
2023/03/17 12:41:16;;;;;;;3.88;2.40;;;15.20;59.30;;;;;;5100535;28;20044;-66
2023/03/17 12:44:02;;;;;;;3.83;2.33;;;15.20;58.80;;;;;;5107780;28;20031;-65
2023/03/17 12:46:33;;;;;;;4.70;2.65;;;15.30;59.00;;;;;;5089341;28;20024;-66
2023/03/17 12:49:17;;;;;;;4.38;2.47;;;15.30;58.70;;;;;;5087118;28;20027;-65
2023/03/17 12:52:05;;;;;;;4.87;2.50;;;15.40;58.50;;;;;;5096375;28;20564;-65
2023/03/17 12:54:36;;;;;;;3.75;2.13;;;15.40;58.70;;;;;;5108730;28;20039;-66
2023/03/17 12:57:27;;;;;;;5.28;2.70;;;15.50;58.30;;;;;;5095778;28;20100;-66
2023/03/17 13:00:04;;;;;;;5.00;2.25;;;15.50;58.40;;;;;;5094659;28;20058;-66
2023/03/17 13:02:38;;;;;;;4.68;2.72;;;15.60;58.00;;;;;;5093513;28;20043;-66
2023/03/17 13:05:12;;;;;;;5.82;2.83;;;15.60;57.70;;;;;;5092260;28;20023;-66
2023/03/17 13:07:51;;;;;;;6.68;2.88;;;15.60;58.00;;;;;;5099091;28;20062;-66